Huvudsida
METAR-TAF:

METAR-TAF

Flygplatser :

Muş, Turkiet

latitud: 38-45N, longitud: 041-40E, höjd: 1266 m

Aktuellt väderrapport

Denna rapport gjordes för 1 timme och 22 minuter sedan, klockan 08:50 UTC
Vind 4 kt varierande vindriktning
Temperatur 29°C
Fuktighet 29%
Tryck 1011 hPa
Sikt 10 km eller mer
Få moln på en höjd av 4000 ft

METAR: LTCK 220850Z VRB04KT 9999 FEW040 29/09 Q1011

Tid: 13:12 (10:12 UTC)

Väderprognos

Denna rapport gjordes för 2 timmar och 32 minuter sedan, klockan 07:40 UTC
Prognos gäller från 22 kl. 09 UTC till 22 kl. 18 UTC
Vind 8 kt från nordost
Sikt 10 km eller mer
Inga moln under 1 500 m eller inga cumulonimbus
Blir
från 22 kl. 09 UTC till 22 kl. 10 UTC
Få moln på en höjd av 4000 ft

TAF: LTCK 220740Z 2209/2218 04008KT CAVOK BECMG 2209/2210 FEW040

Aktuella väderrapporter och prognoser från 4000 flygplatser (METAR- och TAF-rapporter).

De tillgängliga stationerna syns som gula och röda prickar på kartan.

För musen över prickarna för att se namnen på stationerna.

Klicka sedan för att få väderrapporter och prognoser.

För att ändra kartan: Klicka på de gröna knapparna med ett svart kors på för att zooma in; den gröna knappen med ett streck på för att zooma ut; eller på de gröna pilarna för angränsande kartor.


METAR-TAF: